Etusivu
METAR-TAF:

METAR-TAF

Lentoasemat :

Aupaluk, Quebec, Kanada

Leveyspiiri: 59-17-48N, Pituuspiiri: 069-35-59W, korkeus merenpinnasta: 35 m

Tämänhetkinen sää

Tämä raportti tehtiin 8 tuntia ja 21 minuuttia sitten, kello 19.00 UTC
Tuuli 26 kn pohjoisesta/koillisesta puuskistuen 31 kn:hen
Lämpötila -5°C
Kosteus 86%
Ilmanpaine 1012 hPa
Näkyvyys: 9.7 km
Hajonneita pilviä 1200 ft:n korkeudessa
Pilvistä 2600 ft:n korkeudessa
heikkoa lumisadetta, lumituiskua

METAR: CYLA 091900Z 03026G31KT 6SM -SN BLSN BKN012 OVC026 M05/M07 A2988 RMK SC6SC2 LAST STFD OBS/NEXT 101200UTC SLP122

Aika: 23:21 (03:21 UTC)


TAF: puuttuu

Säähavainnot ja -ennusteet yli 4000 lentoasemalta (METAR- ja TAF-raportit).

Käytössä olevat sääasemat on merkitty karttaan keltaisilla ja punaisilla pisteillä.

Aseta hiiri pisteen päälle nähdäksesi sääaseman nimen.

Klikkaa sitten nähdäksesi säähavainnot ja -ennusteet.

Kartan vaihtaminen: klikkaa mustalla rastilla varustettuja vihreitä pisteitä, niin voit zoomata sisään; viivalla varustettua vihreää pistettä, niin voit zoomata ulos tai vihreitä nuolia, niin pääset viereisille kartoille.


METAR-TAF: